sensor_id;sensor_type;location;lat;lon;timestamp;pressure;altitude;pressure_sealevel;temperature;humidity
55291;BME280;41155;39.768;2.712;2023-05-01T00:01:42;101294.97;;;19.35;55.97
55291;BME280;41155;39.768;2.712;2023-05-01T00:04:08;101324.31;;;19.53;55.68
55291;BME280;41155;39.768;2.712;2023-05-01T00:06:33;101318.97;;;19.43;54.86
55291;BME280;41155;39.768;2.712;2023-05-01T00:08:59;101325.91;;;19.54;54.71
55291;BME280;41155;39.768;2.712;2023-05-01T00:11:24;101324.50;;;19.57;54.83
55291;BME280;41155;39.768;2.712;2023-05-01T00:13:50;101328.22;;;19.66;55.94
55291;BME280;41155;39.768;2.712;2023-05-01T00:16:16;101331.72;;;19.72;55.70
55291;BME280;41155;39.768;2.712;2023-05-01T00:18:42;101333.25;;;19.78;56.07
55291;BME280;41155;39.768;2.712;2023-05-01T00:21:07;101320.75;;;19.72;55.92
55291;BME280;41155;39.768;2.712;2023-05-01T00:23:33;101328.34;;;19.94;55.07
55291;BME280;41155;39.768;2.712;2023-05-01T00:25:58;101323.84;;;19.84;54.83
55291;BME280;41155;39.768;2.712;2023-05-01T00:28:24;101323.22;;;19.73;54.88
55291;BME280;41155;39.768;2.712;2023-05-01T00:30:49;101319.34;;;19.74;54.58
55291;BME280;41155;39.768;2.712;2023-05-01T00:33:15;101332.31;;;19.69;55.33
55291;BME280;41155;39.768;2.712;2023-05-01T00:35:44;101317.28;;;19.47;56.26
55291;BME280;41155;39.768;2.712;2023-05-01T00:38:09;101315.28;;;19.53;56.22
55291;BME280;41155;39.768;2.712;2023-05-01T00:40:45;101309.47;;;19.54;56.51
55291;BME280;41155;39.768;2.712;2023-05-01T00:43:11;101318.16;;;19.61;56.75
55291;BME280;41155;39.768;2.712;2023-05-01T00:45:37;101297.06;;;19.43;56.99
55291;BME280;41155;39.768;2.712;2023-05-01T00:48:03;101315.28;;;19.53;57.31
55291;BME280;41155;39.768;2.712;2023-05-01T00:50:30;101313.72;;;19.28;57.86
55291;BME280;41155;39.768;2.712;2023-05-01T00:52:56;101320.66;;;19.39;57.95
55291;BME280;41155;39.768;2.712;2023-05-01T00:55:22;101321.16;;;19.41;57.87
55291;BME280;41155;39.768;2.712;2023-05-01T00:57:47;101294.97;;;19.35;57.66
55291;BME280;41155;39.768;2.712;2023-05-01T01:00:14;101312.88;;;19.46;57.57
55291;BME280;41155;39.768;2.712;2023-05-01T01:02:41;101320.81;;;19.48;57.57
55291;BME280;41155;39.768;2.712;2023-05-01T01:05:06;101307.78;;;19.58;57.04
55291;BME280;41155;39.768;2.712;2023-05-01T01:07:50;101303.78;;;19.32;58.21
55291;BME280;41155;39.768;2.712;2023-05-01T01:13:31;101273.63;;;19.18;59.13
55291;BME280;41155;39.768;2.712;2023-05-01T01:18:39;101288.25;;;19.27;59.04
55291;BME280;41155;39.768;2.712;2023-05-01T01:21:18;101280.19;;;19.36;59.00
55291;BME280;41155;39.768;2.712;2023-05-01T01:24:08;101247.25;;;19.22;58.44
55291;BME280;41155;39.768;2.712;2023-05-01T01:35:10;101256.72;;;18.92;60.70
55291;BME280;41155;39.768;2.712;2023-05-01T01:37:42;101244.34;;;18.94;60.30
55291;BME280;41155;39.768;2.712;2023-05-01T01:40:16;101239.47;;;18.91;59.98
55291;BME280;41155;39.768;2.712;2023-05-01T01:42:50;101256.34;;;18.99;60.24
55291;BME280;41155;39.768;2.712;2023-05-01T01:45:22;101247.09;;;18.94;60.25
55291;BME280;41155;39.768;2.712;2023-05-01T01:47:50;101246.16;;;19.04;60.14
55291;BME280;41155;39.768;2.712;2023-05-01T01:50:17;101254.78;;;19.11;59.93
55291;BME280;41155;39.768;2.712;2023-05-01T01:52:48;101256.94;;;19.14;59.98
55291;BME280;41155;39.768;2.712;2023-05-01T01:55:15;101246.72;;;19.20;59.52
55291;BME280;41155;39.768;2.712;2023-05-01T01:57:43;101213.94;;;19.15;59.22
55291;BME280;41155;39.768;2.712;2023-05-01T02:00:11;101245.78;;;19.30;59.06
55291;BME280;41155;39.768;2.712;2023-05-01T02:02:38;101236.53;;;19.26;59.26
55291;BME280;41155;39.768;2.712;2023-05-01T02:05:08;101247.25;;;19.22;59.47
55291;BME280;41155;39.768;2.712;2023-05-01T02:07:38;101237.28;;;19.12;59.78
55291;BME280;41155;39.768;2.712;2023-05-01T02:10:05;101240.31;;;19.11;60.07
55291;BME280;41155;39.768;2.712;2023-05-01T02:12:32;101242.75;;;19.12;59.94
55291;BME280;41155;39.768;2.712;2023-05-01T02:14:58;101216.66;;;19.01;59.95
55291;BME280;41155;39.768;2.712;2023-05-01T02:17:25;101235.28;;;19.18;59.88
55291;BME280;41155;39.768;2.712;2023-05-01T02:19:55;101222.41;;;19.00;60.52
55291;BME280;41155;39.768;2.712;2023-05-01T02:22:21;101214.94;;;18.86;60.71
55291;BME280;41155;39.768;2.712;2023-05-01T02:24:51;101208.94;;;18.84;60.96
55291;BME280;41155;39.768;2.712;2023-05-01T02:27:19;101213.81;;;18.87;61.04
55291;BME280;41155;39.768;2.712;2023-05-01T02:29:50;101206.06;;;18.76;61.31
55291;BME280;41155;39.768;2.712;2023-05-01T02:32:16;101196.13;;;18.80;61.05
55291;BME280;41155;39.768;2.712;2023-05-01T02:34:41;101212.41;;;18.90;60.93
55291;BME280;41155;39.768;2.712;2023-05-01T02:37:09;101192.38;;;18.76;61.34
55291;BME280;41155;39.768;2.712;2023-05-01T02:39:36;101200.56;;;18.76;61.00
55291;BME280;41155;39.768;2.712;2023-05-01T02:42:02;101203.88;;;18.72;60.95
55291;BME280;41155;39.768;2.712;2023-05-01T02:44:31;101182.84;;;18.01;63.17
55291;BME280;41155;39.768;2.712;2023-05-01T02:47:04;101186.22;;;17.93;63.51
55291;BME280;41155;39.768;2.712;2023-05-01T02:49:32;101202.19;;;18.04;63.51
55291;BME280;41155;39.768;2.712;2023-05-01T02:52:02;101206.22;;;18.12;63.38
55291;BME280;41155;39.768;2.712;2023-05-01T02:54:29;101214.38;;;18.17;63.44
55291;BME280;41155;39.768;2.712;2023-05-01T02:56:55;101202.50;;;17.74;64.85
55291;BME280;41155;39.768;2.712;2023-05-01T02:59:22;101204.06;;;17.85;64.54
55291;BME280;41155;39.768;2.712;2023-05-01T03:01:47;101198.72;;;17.99;64.03
55291;BME280;41155;39.768;2.712;2023-05-01T03:04:13;101193.78;;;18.01;63.90
55291;BME280;41155;39.768;2.712;2023-05-01T03:06:38;101210.31;;;18.15;63.54
55291;BME280;41155;39.768;2.712;2023-05-01T03:09:04;101212.38;;;17.99;64.14
55291;BME280;41155;39.768;2.712;2023-05-01T03:11:30;101192.25;;;17.90;63.87
55291;BME280;41155;39.768;2.712;2023-05-01T03:13:55;101190.63;;;17.89;64.01
55291;BME280;41155;39.768;2.712;2023-05-01T03:16:21;101213.91;;;18.10;63.71
55291;BME280;41155;39.768;2.712;2023-05-01T03:18:46;101199.72;;;18.08;63.49
55291;BME280;41155;39.768;2.712;2023-05-01T03:21:12;101192.00;;;18.15;62.98
55291;BME280;41155;39.768;2.712;2023-05-01T03:23:38;101210.88;;;18.36;62.67
55291;BME280;41155;39.768;2.712;2023-05-01T03:26:03;101205.81;;;18.24;62.92
55291;BME280;41155;39.768;2.712;2023-05-01T03:28:29;101188.13;;;18.16;62.62
55291;BME280;41155;39.768;2.712;2023-05-01T03:30:54;101198.25;;;18.16;63.12
55291;BME280;41155;39.768;2.712;2023-05-01T03:33:20;101188.44;;;18.15;63.15
55291;BME280;41155;39.768;2.712;2023-05-01T03:35:46;101202.81;;;17.67;64.94
55291;BME280;41155;39.768;2.712;2023-05-01T03:38:12;101199.66;;;17.55;65.25
55291;BME280;41155;39.768;2.712;2023-05-01T03:40:37;101195.66;;;17.42;65.82
55291;BME280;41155;39.768;2.712;2023-05-01T03:43:03;101194.41;;;17.58;65.31
55291;BME280;41155;39.768;2.712;2023-05-01T03:45:28;101195.75;;;17.61;65.13
55291;BME280;41155;39.768;2.712;2023-05-01T03:47:53;101182.91;;;17.61;65.26
55291;BME280;41155;39.768;2.712;2023-05-01T03:50:19;101175.25;;;17.63;64.82
55291;BME280;41155;39.768;2.712;2023-05-01T03:52:44;101202.91;;;17.91;64.64
55291;BME280;41155;39.768;2.712;2023-05-01T03:55:10;101202.03;;;17.96;64.22
55291;BME280;41155;39.768;2.712;2023-05-01T03:57:36;101172.09;;;17.86;64.24
55291;BME280;41155;39.768;2.712;2023-05-01T04:00:01;101196.75;;;18.04;63.98
55291;BME280;41155;39.768;2.712;2023-05-01T04:02:27;101189.59;;;18.09;63.75
55291;BME280;41155;39.768;2.712;2023-05-01T04:04:52;101187.97;;;18.07;63.81
55291;BME280;41155;39.768;2.712;2023-05-01T04:07:18;101204.47;;;18.21;63.22
55291;BME280;41155;39.768;2.712;2023-05-01T04:09:43;101153.09;;;17.99;62.91
55291;BME280;41155;39.768;2.712;2023-05-01T04:12:09;101184.78;;;18.24;62.75
55291;BME280;41155;39.768;2.712;2023-05-01T04:14:34;101165.28;;;18.07;62.89
55291;BME280;41155;39.768;2.712;2023-05-01T04:17:00;101200.25;;;18.34;62.61
55291;BME280;41155;39.768;2.712;2023-05-01T04:19:26;101193.28;;;18.23;62.71
55291;BME280;41155;39.768;2.712;2023-05-01T04:21:51;101192.97;;;18.00;63.87
55291;BME280;41155;39.768;2.712;2023-05-01T04:24:17;101150.25;;;17.51;64.33
55291;BME280;41155;39.768;2.712;2023-05-01T04:26:42;101205.28;;;17.98;64.21
55291;BME280;41155;39.768;2.712;2023-05-01T04:29:08;101196.94;;;17.84;64.38
55291;BME280;41155;39.768;2.712;2023-05-01T04:31:34;101191.25;;;17.75;64.57
55291;BME280;41155;39.768;2.712;2023-05-01T04:34:00;101166.59;;;17.56;64.64
55291;BME280;41155;39.768;2.712;2023-05-01T04:36:25;101214.16;;;17.84;64.55
55291;BME280;41155;39.768;2.712;2023-05-01T04:38:50;101212.56;;;17.78;64.71
55291;BME280;41155;39.768;2.712;2023-05-01T04:41:16;101191.84;;;17.72;64.43
55291;BME280;41155;39.768;2.712;2023-05-01T04:43:42;101212.50;;;17.89;63.93
55291;BME280;41155;39.768;2.712;2023-05-01T04:46:07;101217.38;;;17.92;64.37
55291;BME280;41155;39.768;2.712;2023-05-01T04:48:33;101219.53;;;17.95;64.11
55291;BME280;41155;39.768;2.712;2023-05-01T04:50:58;101221.91;;;18.01;63.90
55291;BME280;41155;39.768;2.712;2023-05-01T04:53:24;101197.47;;;17.86;63.92
55291;BME280;41155;39.768;2.712;2023-05-01T04:55:49;101230.59;;;18.09;63.97
55291;BME280;41155;39.768;2.712;2023-05-01T04:58:15;101234.50;;;18.26;63.45
55291;BME280;41155;39.768;2.712;2023-05-01T05:00:40;101234.19;;;18.04;63.88
55291;BME280;41155;39.768;2.712;2023-05-01T05:03:06;101235.53;;;18.06;63.78
55291;BME280;41155;39.768;2.712;2023-05-01T05:05:32;101233.06;;;18.05;63.96
55291;BME280;41155;39.768;2.712;2023-05-01T05:07:58;101227.31;;;17.82;64.57
55291;BME280;41155;39.768;2.712;2023-05-01T05:10:24;101246.84;;;17.95;64.22
55291;BME280;41155;39.768;2.712;2023-05-01T05:12:49;101238.66;;;17.95;64.20
55291;BME280;41155;39.768;2.712;2023-05-01T05:15:15;101217.50;;;17.76;64.02
55291;BME280;41155;39.768;2.712;2023-05-01T05:17:40;101213.91;;;17.81;64.38
55291;BME280;41155;39.768;2.712;2023-05-01T05:20:06;101227.75;;;17.90;64.20
55291;BME280;41155;39.768;2.712;2023-05-01T05:22:35;101237.69;;;18.10;63.38
55291;BME280;41155;39.768;2.712;2023-05-01T05:25:02;101241.53;;;18.09;63.31
55291;BME280;41155;39.768;2.712;2023-05-01T05:27:29;101222.72;;;18.02;62.65
55291;BME280;41155;39.768;2.712;2023-05-01T05:29:55;101252.03;;;18.25;62.81
55291;BME280;41155;39.768;2.712;2023-05-01T05:32:21;101226.06;;;18.23;62.54
55291;BME280;41155;39.768;2.712;2023-05-01T05:34:46;101244.44;;;18.41;62.79
55291;BME280;41155;39.768;2.712;2023-05-01T05:37:12;101251.13;;;18.54;61.71
55291;BME280;41155;39.768;2.712;2023-05-01T05:39:37;101246.91;;;18.43;62.10
55291;BME280;41155;39.768;2.712;2023-05-01T05:42:03;101258.81;;;18.52;62.25
55291;BME280;41155;39.768;2.712;2023-05-01T05:44:28;101269.22;;;18.50;61.87
55291;BME280;41155;39.768;2.712;2023-05-01T05:46:54;101242.56;;;18.37;61.87
55291;BME280;41155;39.768;2.712;2023-05-01T05:49:19;101262.72;;;18.46;62.47
55291;BME280;41155;39.768;2.712;2023-05-01T05:51:45;101222.28;;;18.19;62.46
55291;BME280;41155;39.768;2.712;2023-05-01T05:54:10;101222.00;;;18.20;62.69
55291;BME280;41155;39.768;2.712;2023-05-01T05:56:36;101265.09;;;18.52;62.42
55291;BME280;41155;39.768;2.712;2023-05-01T05:59:01;101255.16;;;18.62;62.21
55291;BME280;41155;39.768;2.712;2023-05-01T06:01:28;101266.56;;;18.69;62.20
55291;BME280;41155;39.768;2.712;2023-05-01T06:03:54;101271.72;;;18.70;62.07
55291;BME280;41155;39.768;2.712;2023-05-01T06:06:19;101271.94;;;18.79;62.14
55291;BME280;41155;39.768;2.712;2023-05-01T06:08:45;101235.47;;;18.60;62.14
55291;BME280;41155;39.768;2.712;2023-05-01T06:11:11;101262.31;;;18.82;61.47
55291;BME280;41155;39.768;2.712;2023-05-01T06:13:36;101276.91;;;18.96;61.29
55291;BME280;41155;39.768;2.712;2023-05-01T06:16:02;101288.13;;;18.94;61.22
55291;BME280;41155;39.768;2.712;2023-05-01T06:18:28;101287.34;;;18.46;62.35
55291;BME280;41155;39.768;2.712;2023-05-01T06:20:54;101284.56;;;18.22;63.46
55291;BME280;41155;39.768;2.712;2023-05-01T06:23:20;101285.81;;;18.35;63.29
55291;BME280;41155;39.768;2.712;2023-05-01T06:25:45;101283.16;;;18.24;63.70
55291;BME280;41155;39.768;2.712;2023-05-01T06:28:13;101243.28;;;18.23;63.17
55291;BME280;41155;39.768;2.712;2023-05-01T06:30:38;101277.25;;;18.41;61.59
55291;BME280;41155;39.768;2.712;2023-05-01T06:33:04;101273.47;;;18.61;60.67
55291;BME280;41155;39.768;2.712;2023-05-01T06:35:29;101295.16;;;18.82;61.07
55291;BME280;41155;39.768;2.712;2023-05-01T06:37:55;101291.63;;;19.00;61.40
55291;BME280;41155;39.768;2.712;2023-05-01T06:40:21;101297.28;;;19.28;60.86
55291;BME280;41155;39.768;2.712;2023-05-01T06:42:46;101290.97;;;19.46;61.05
55291;BME280;41155;39.768;2.712;2023-05-01T06:45:12;101291.81;;;19.66;61.27
55291;BME280;41155;39.768;2.712;2023-05-01T06:47:37;101291.13;;;19.74;60.77
55291;BME280;41155;39.768;2.712;2023-05-01T06:50:03;101280.19;;;19.74;60.15
55291;BME280;41155;39.768;2.712;2023-05-01T06:52:29;101250.66;;;19.71;58.91
55291;BME280;41155;39.768;2.712;2023-05-01T06:54:55;101275.56;;;19.88;58.82
55291;BME280;41155;39.768;2.712;2023-05-01T06:57:20;101277.31;;;19.98;58.38
55291;BME280;41155;39.768;2.712;2023-05-01T06:59:46;101268.06;;;20.07;56.85
55291;BME280;41155;39.768;2.712;2023-05-01T07:02:12;101292.28;;;20.33;56.89
55291;BME280;41155;39.768;2.712;2023-05-01T07:04:37;101298.59;;;20.47;56.55
55291;BME280;41155;39.768;2.712;2023-05-01T07:07:03;101296.81;;;20.57;56.18
55291;BME280;41155;39.768;2.712;2023-05-01T07:09:28;101295.81;;;20.52;55.86
55291;BME280;41155;39.768;2.712;2023-05-01T07:11:54;101294.66;;;20.53;55.61
55291;BME280;41155;39.768;2.712;2023-05-01T07:14:21;101283.00;;;20.62;54.97
55291;BME280;41155;39.768;2.712;2023-05-01T07:16:47;101280.53;;;20.74;55.09
55291;BME280;41155;39.768;2.712;2023-05-01T07:19:12;101274.25;;;20.60;54.63
55291;BME280;41155;39.768;2.712;2023-05-01T07:21:39;101283.81;;;20.76;55.16
55291;BME280;41155;39.768;2.712;2023-05-01T07:24:05;101280.78;;;20.77;55.02
55291;BME280;41155;39.768;2.712;2023-05-01T07:26:31;101277.69;;;20.79;54.03
55291;BME280;41155;39.768;2.712;2023-05-01T07:28:56;101284.19;;;20.97;54.00
55291;BME280;41155;39.768;2.712;2023-05-01T07:31:21;101286.81;;;21.16;53.79
55291;BME280;41155;39.768;2.712;2023-05-01T07:33:47;101272.53;;;21.41;52.54
55291;BME280;41155;39.768;2.712;2023-05-01T07:36:13;101280.91;;;21.59;52.07
55291;BME280;41155;39.768;2.712;2023-05-01T07:38:39;101284.53;;;21.68;52.25
55291;BME280;41155;39.768;2.712;2023-05-01T07:41:05;101263.41;;;21.77;51.67
55291;BME280;41155;39.768;2.712;2023-05-01T07:43:30;101245.34;;;21.85;50.62
55291;BME280;41155;39.768;2.712;2023-05-01T07:45:57;101270.38;;;22.06;50.27
55291;BME280;41155;39.768;2.712;2023-05-01T07:48:25;101257.06;;;22.22;49.75
55291;BME280;41155;39.768;2.712;2023-05-01T07:50:51;101260.19;;;22.38;49.29
55291;BME280;41155;39.768;2.712;2023-05-01T07:53:16;101242.22;;;22.31;48.96
55291;BME280;41155;39.768;2.712;2023-05-01T07:55:42;101265.78;;;22.64;48.71
55291;BME280;41155;39.768;2.712;2023-05-01T07:58:07;101267.13;;;22.75;48.17
55291;BME280;41155;39.768;2.712;2023-05-01T08:00:34;101241.31;;;22.62;47.92
55291;BME280;41155;39.768;2.712;2023-05-01T08:03:00;101231.81;;;22.68;47.83
55291;BME280;41155;39.768;2.712;2023-05-01T08:05:26;101270.91;;;23.05;48.29
55291;BME280;41155;39.768;2.712;2023-05-01T08:07:51;101250.84;;;23.13;47.25
55291;BME280;41155;39.768;2.712;2023-05-01T08:10:17;101268.03;;;23.45;46.63
55291;BME280;41155;39.768;2.712;2023-05-01T08:12:42;101224.44;;;23.30;45.84
55291;BME280;41155;39.768;2.712;2023-05-01T08:15:08;101263.97;;;23.51;45.61
55291;BME280;41155;39.768;2.712;2023-05-01T08:17:35;101268.34;;;23.78;45.11
55291;BME280;41155;39.768;2.712;2023-05-01T08:20:01;101272.16;;;24.03;44.34
55291;BME280;41155;39.768;2.712;2023-05-01T08:22:26;101265.03;;;24.02;44.89
55291;BME280;41155;39.768;2.712;2023-05-01T08:24:52;101269.22;;;24.17;45.16
55291;BME280;41155;39.768;2.712;2023-05-01T08:27:17;101271.06;;;23.96;46.14
55291;BME280;41155;39.768;2.712;2023-05-01T08:29:43;101269.97;;;23.79;46.92
55291;BME280;41155;39.768;2.712;2023-05-01T08:32:09;101283.88;;;23.91;46.67
55291;BME280;41155;39.768;2.712;2023-05-01T08:34:34;101262.00;;;23.43;47.05
55291;BME280;41155;39.768;2.712;2023-05-01T08:37:00;101276.44;;;23.40;47.69
55291;BME280;41155;39.768;2.712;2023-05-01T08:39:26;101280.16;;;23.09;48.65
55291;BME280;41155;39.768;2.712;2023-05-01T08:41:51;101280.47;;;22.99;49.00
55291;BME280;41155;39.768;2.712;2023-05-01T08:44:18;101281.69;;;22.84;49.27
55291;BME280;41155;39.768;2.712;2023-05-01T08:47:15;101291.94;;;22.92;49.77
55291;BME280;41155;39.768;2.712;2023-05-01T08:49:41;101279.84;;;23.11;49.49
55291;BME280;41155;39.768;2.712;2023-05-01T08:52:12;101305.13;;;23.13;49.70
55291;BME280;41155;39.768;2.712;2023-05-01T08:54:43;101303.81;;;23.10;50.15
55291;BME280;41155;39.768;2.712;2023-05-01T08:57:10;101304.44;;;22.98;50.75
55291;BME280;41155;39.768;2.712;2023-05-01T08:59:37;101284.78;;;22.74;51.52
55291;BME280;41155;39.768;2.712;2023-05-01T09:02:07;101265.75;;;22.55;52.15
55291;BME280;41155;39.768;2.712;2023-05-01T09:04:37;101305.09;;;22.55;52.68
55291;BME280;41155;39.768;2.712;2023-05-01T09:07:03;101304.59;;;22.53;53.03
55291;BME280;41155;39.768;2.712;2023-05-01T09:09:30;101307.63;;;22.43;53.49
55291;BME280;41155;39.768;2.712;2023-05-01T09:12:21;101307.47;;;22.40;53.82
55291;BME280;41155;39.768;2.712;2023-05-01T09:14:49;101310.59;;;22.55;53.52
55291;BME280;41155;39.768;2.712;2023-05-01T09:17:15;101318.94;;;22.82;52.63
55291;BME280;41155;39.768;2.712;2023-05-01T09:19:40;101304.97;;;22.69;52.98
55291;BME280;41155;39.768;2.712;2023-05-01T09:22:06;101323.75;;;22.67;53.21
55291;BME280;41155;39.768;2.712;2023-05-01T09:24:33;101320.31;;;22.62;53.77
55291;BME280;41155;39.768;2.712;2023-05-01T09:26:58;101330.66;;;22.56;53.51
55291;BME280;41155;39.768;2.712;2023-05-01T09:32:18;101331.81;;;22.55;53.94
55291;BME280;41155;39.768;2.712;2023-05-01T09:37:33;101325.75;;;22.44;54.12
55291;BME280;41155;39.768;2.712;2023-05-01T09:42:32;101340.09;;;22.32;55.13
55291;BME280;41155;39.768;2.712;2023-05-01T09:44:58;101327.34;;;22.14;55.53
55291;BME280;41155;39.768;2.712;2023-05-01T09:47:25;101340.56;;;22.26;55.82
55291;BME280;41155;39.768;2.712;2023-05-01T09:49:54;101356.47;;;22.38;55.56
55291;BME280;41155;39.768;2.712;2023-05-01T09:52:21;101362.84;;;22.47;55.57
55291;BME280;41155;39.768;2.712;2023-05-01T09:54:46;101357.97;;;22.44;55.96
55291;BME280;41155;39.768;2.712;2023-05-01T09:57:12;101346.66;;;22.45;55.41
55291;BME280;41155;39.768;2.712;2023-05-01T09:59:37;101369.56;;;22.63;55.07
55291;BME280;41155;39.768;2.712;2023-05-01T10:02:03;101360.81;;;22.61;54.88
55291;BME280;41155;39.768;2.712;2023-05-01T10:04:33;101360.94;;;22.56;55.61
55291;BME280;41155;39.768;2.712;2023-05-01T10:07:12;101345.88;;;22.53;55.77
55291;BME280;41155;39.768;2.712;2023-05-01T10:09:37;101367.34;;;22.74;55.17
55291;BME280;41155;39.768;2.712;2023-05-01T10:12:03;101356.22;;;22.88;55.53
55291;BME280;41155;39.768;2.712;2023-05-01T10:14:29;101347.13;;;22.78;55.78
55291;BME280;41155;39.768;2.712;2023-05-01T10:16:58;101331.22;;;22.75;55.53
55291;BME280;41155;39.768;2.712;2023-05-01T10:19:23;101365.88;;;23.16;54.99
55291;BME280;41155;39.768;2.712;2023-05-01T10:21:49;101352.22;;;23.02;54.75
55291;BME280;41155;39.768;2.712;2023-05-01T10:24:15;101346.31;;;23.27;55.07
55291;BME280;41155;39.768;2.712;2023-05-01T10:26:41;101354.25;;;23.45;55.00
55291;BME280;41155;39.768;2.712;2023-05-01T10:29:11;101330.09;;;23.34;54.30
55291;BME280;41155;39.768;2.712;2023-05-01T10:31:37;101367.25;;;23.54;54.24
55291;BME280;41155;39.768;2.712;2023-05-01T10:34:02;101371.03;;;23.75;53.80
55291;BME280;41155;39.768;2.712;2023-05-01T10:36:42;101369.19;;;23.62;54.34
55291;BME280;41155;39.768;2.712;2023-05-01T10:39:37;101376.28;;;23.28;55.40
55291;BME280;41155;39.768;2.712;2023-05-01T10:42:07;101373.06;;;23.26;55.65
55291;BME280;41155;39.768;2.712;2023-05-01T10:44:39;101365.75;;;23.30;56.28
55291;BME280;41155;39.768;2.712;2023-05-01T10:50:11;101374.75;;;23.71;55.57
55291;BME280;41155;39.768;2.712;2023-05-01T10:55:47;101372.25;;;24.12;53.13
55291;BME280;41155;39.768;2.712;2023-05-01T11:06:26;101351.22;;;24.93;50.87
55291;BME280;41155;39.768;2.712;2023-05-01T11:08:52;101363.53;;;25.04;50.06
55291;BME280;41155;39.768;2.712;2023-05-01T11:13:59;101347.44;;;25.07;48.09
55291;BME280;41155;39.768;2.712;2023-05-01T11:21:44;101320.00;;;25.52;47.14
55291;BME280;41155;39.768;2.712;2023-05-01T11:24:11;101310.63;;;25.44;46.02
55291;BME280;41155;39.768;2.712;2023-05-01T11:26:41;101328.47;;;25.68;47.20
55291;BME280;41155;39.768;2.712;2023-05-01T11:29:08;101330.22;;;25.73;47.31
55291;BME280;41155;39.768;2.712;2023-05-01T11:31:40;101334.97;;;25.72;47.49
55291;BME280;41155;39.768;2.712;2023-05-01T11:34:05;101330.97;;;25.61;47.37
55291;BME280;41155;39.768;2.712;2023-05-01T11:36:50;101337.78;;;25.42;47.88
55291;BME280;41155;39.768;2.712;2023-05-01T11:39:16;101350.72;;;25.00;48.67
55291;BME280;41155;39.768;2.712;2023-05-01T11:41:42;101338.31;;;24.85;48.41
55291;BME280;41155;39.768;2.712;2023-05-01T11:44:11;101309.00;;;24.63;48.00
55291;BME280;41155;39.768;2.712;2023-05-01T11:46:36;101360.00;;;24.95;48.35
55291;BME280;41155;39.768;2.712;2023-05-01T11:49:02;101363.63;;;24.87;47.92
55291;BME280;41155;39.768;2.712;2023-05-01T11:51:29;101358.47;;;25.07;47.08
55291;BME280;41155;39.768;2.712;2023-05-01T11:56:26;101344.00;;;24.80;46.45
55291;BME280;41155;39.768;2.712;2023-05-01T11:58:53;101371.63;;;25.10;46.14
55291;BME280;41155;39.768;2.712;2023-05-01T12:01:19;101349.84;;;24.78;45.88
55291;BME280;41155;39.768;2.712;2023-05-01T12:03:45;101365.03;;;24.93;45.75
55291;BME280;41155;39.768;2.712;2023-05-01T12:06:11;101382.78;;;25.22;45.12
55291;BME280;41155;39.768;2.712;2023-05-01T12:08:46;101379.16;;;25.30;44.31
55291;BME280;41155;39.768;2.712;2023-05-01T12:11:12;101358.59;;;25.40;43.75
55291;BME280;41155;39.768;2.712;2023-05-01T12:13:39;101367.38;;;25.63;43.64
55291;BME280;41155;39.768;2.712;2023-05-01T12:16:05;101369.69;;;25.82;43.10
55291;BME280;41155;39.768;2.712;2023-05-01T12:18:31;101378.00;;;25.61;42.76
55291;BME280;41155;39.768;2.712;2023-05-01T12:20:57;101376.91;;;25.53;42.03
55291;BME280;41155;39.768;2.712;2023-05-01T12:23:33;101356.00;;;25.43;41.74
55291;BME280;41155;39.768;2.712;2023-05-01T12:26:00;101374.19;;;25.65;41.10
55291;BME280;41155;39.768;2.712;2023-05-01T12:28:28;101375.16;;;25.69;41.61
55291;BME280;41155;39.768;2.712;2023-05-01T12:31:00;101364.16;;;25.61;41.54
55291;BME280;41155;39.768;2.712;2023-05-01T12:33:26;101371.72;;;25.93;40.43
55291;BME280;41155;39.768;2.712;2023-05-01T12:35:51;101351.06;;;25.70;40.66
55291;BME280;41155;39.768;2.712;2023-05-01T12:38:21;101364.31;;;26.19;40.38
55291;BME280;41155;39.768;2.712;2023-05-01T12:40:57;101372.19;;;25.96;39.54
55291;BME280;41155;39.768;2.712;2023-05-01T12:43:37;101365.03;;;25.95;39.14
55291;BME280;41155;39.768;2.712;2023-05-01T12:46:04;101361.16;;;26.08;39.56
55291;BME280;41155;39.768;2.712;2023-05-01T12:48:30;101335.84;;;26.30;39.08
55291;BME280;41155;39.768;2.712;2023-05-01T12:50:57;101354.16;;;26.56;38.09
55291;BME280;41155;39.768;2.712;2023-05-01T12:53:24;101367.72;;;26.49;37.85
55291;BME280;41155;39.768;2.712;2023-05-01T12:55:55;101366.84;;;26.57;38.02
55291;BME280;41155;39.768;2.712;2023-05-01T12:58:21;101371.84;;;26.30;38.41
55291;BME280;41155;39.768;2.712;2023-05-01T13:00:53;101361.09;;;26.29;38.95
55291;BME280;41155;39.768;2.712;2023-05-01T13:03:27;101374.91;;;26.17;38.74
55291;BME280;41155;39.768;2.712;2023-05-01T13:05:53;101374.06;;;26.04;39.11
55291;BME280;41155;39.768;2.712;2023-05-01T13:08:46;101372.56;;;26.06;39.04
55291;BME280;41155;39.768;2.712;2023-05-01T13:11:13;101366.59;;;25.83;38.63
55291;BME280;41155;39.768;2.712;2023-05-01T13:13:42;101365.78;;;25.62;39.93
55291;BME280;41155;39.768;2.712;2023-05-01T13:16:08;101374.56;;;25.43;40.30
55291;BME280;41155;39.768;2.712;2023-05-01T13:18:48;101377.38;;;24.96;40.77
55291;BME280;41155;39.768;2.712;2023-05-01T13:21:19;101368.09;;;24.71;41.32
55291;BME280;41155;39.768;2.712;2023-05-01T13:23:55;101376.56;;;24.66;41.75
55291;BME280;41155;39.768;2.712;2023-05-01T13:26:30;101365.53;;;24.57;41.83
55291;BME280;41155;39.768;2.712;2023-05-01T13:29:02;101339.34;;;24.07;42.42
55291;BME280;41155;39.768;2.712;2023-05-01T13:31:28;101367.03;;;24.46;43.08
55291;BME280;41155;39.768;2.712;2023-05-01T13:33:57;101358.75;;;24.84;42.47
55291;BME280;41155;39.768;2.712;2023-05-01T13:36:23;101347.72;;;25.14;41.68
55291;BME280;41155;39.768;2.712;2023-05-01T13:38:50;101354.59;;;25.58;40.84